createdAt,value
2023-02-11T00:04:30.916Z,-3.50
2023-02-11T00:09:38.457Z,-3.60
2023-02-11T00:14:47.664Z,-3.50
2023-02-11T00:19:57.017Z,-3.50
2023-02-11T00:25:04.779Z,-3.30
2023-02-11T00:30:14.376Z,-3.10
2023-02-11T00:35:29.233Z,-3.00
2023-02-11T00:40:36.789Z,-3.30
2023-02-11T00:45:45.082Z,-3.70
2023-02-11T00:50:52.122Z,-3.20
2023-02-11T00:55:59.348Z,-3.10
2023-02-11T01:01:08.964Z,-3.20
2023-02-11T01:06:16.711Z,-3.10
2023-02-11T01:11:26.123Z,-3.20
2023-02-11T01:16:33.410Z,-3.00
2023-02-11T01:21:46.885Z,-2.90
2023-02-11T01:26:56.643Z,-3.10
2023-02-11T01:32:04.439Z,-3.00
2023-02-11T01:37:14.093Z,-3.00
2023-02-11T01:42:25.675Z,-3.10
2023-02-11T01:47:33.137Z,-3.20
2023-02-11T01:52:43.608Z,-3.30
2023-02-11T01:57:56.698Z,-3.20
2023-02-11T02:03:11.382Z,-3.10
2023-02-11T02:08:39.525Z,-2.80
2023-02-11T02:13:46.547Z,-2.50
2023-02-11T02:19:23.794Z,-2.70
2023-02-11T02:24:51.920Z,-2.70
2023-02-11T02:30:31.823Z,-2.90
2023-02-11T02:35:50.166Z,-2.80
2023-02-11T02:41:16.268Z,-2.60
2023-02-11T02:46:33.094Z,-2.60
2023-02-11T02:51:45.073Z,-2.30
2023-02-11T02:57:13.153Z,-2.40
2023-02-11T03:03:12.792Z,-2.40
2023-02-11T03:08:47.075Z,-2.20
2023-02-11T03:13:54.769Z,-2.30
2023-02-11T03:19:10.270Z,-2.30
2023-02-11T03:24:36.001Z,-2.00
2023-02-11T03:29:57.088Z,-1.90
2023-02-11T03:35:32.347Z,-1.80
2023-02-11T03:40:42.077Z,-1.30
2023-02-11T03:45:53.415Z,-1.40
2023-02-11T03:51:03.930Z,-1.60
2023-02-11T03:56:15.723Z,-1.60
2023-02-11T04:01:24.315Z,-1.50
2023-02-11T04:06:32.288Z,-1.60
2023-02-11T04:11:39.965Z,-1.60
2023-02-11T04:16:47.896Z,-1.50
2023-02-11T04:21:54.955Z,-1.40
2023-02-11T04:27:05.226Z,-1.40
2023-02-11T04:32:13.928Z,-1.50
2023-02-11T04:37:21.552Z,-1.50
2023-02-11T04:42:29.110Z,-1.30
2023-02-11T04:47:38.855Z,-1.10
2023-02-11T04:52:45.629Z,-1.20
2023-02-11T04:57:52.964Z,-1.20
2023-02-11T05:02:59.299Z,-1.00
2023-02-11T05:08:07.468Z,-1.00
2023-02-11T05:13:16.935Z,-1.10
2023-02-11T05:18:24.344Z,-0.90
2023-02-11T05:23:31.292Z,-0.80
2023-02-11T05:28:39.146Z,-0.70
2023-02-11T05:33:46.333Z,-0.60
2023-02-11T05:38:56.201Z,0.30
2023-02-11T05:44:02.885Z,1.30
2023-02-11T05:49:10.965Z,1.60
2023-02-11T05:54:17.799Z,1.80
2023-02-11T05:59:24.918Z,2.00
2023-02-11T06:04:31.746Z,2.20
2023-02-11T06:09:39.446Z,2.30
2023-02-11T06:14:46.282Z,2.30
2023-02-11T06:19:53.649Z,2.40
2023-02-11T06:25:02.295Z,2.40
2023-02-11T06:30:11.347Z,2.50
2023-02-11T06:35:18.231Z,2.50
2023-02-11T06:40:24.981Z,2.60
2023-02-11T06:45:32.809Z,2.80
2023-02-11T06:50:40.785Z,2.70
2023-02-11T06:55:47.700Z,2.70
2023-02-11T07:00:57.624Z,2.80
2023-02-11T07:06:06.180Z,2.80
2023-02-11T07:11:15.852Z,2.80
2023-02-11T07:16:24.316Z,2.80
2023-02-11T07:21:31.152Z,2.80
2023-02-11T07:26:39.025Z,2.80
2023-02-11T07:31:47.152Z,2.90
2023-02-11T07:36:54.336Z,3.00
2023-02-11T07:42:01.165Z,3.00
2023-02-11T07:47:08.275Z,3.00
2023-02-11T07:52:15.082Z,3.20
2023-02-11T07:57:22.568Z,3.30
2023-02-11T08:02:29.258Z,3.60
2023-02-11T08:07:36.693Z,3.90
2023-02-11T08:12:42.441Z,4.10
2023-02-11T08:17:48.789Z,4.30
2023-02-11T08:22:56.128Z,4.20
2023-02-11T08:28:03.724Z,4.30
2023-02-11T08:33:11.292Z,4.30
2023-02-11T08:38:17.781Z,4.30
2023-02-11T08:43:25.414Z,4.20
2023-02-11T08:48:32.642Z,4.30
2023-02-11T08:53:39.945Z,4.20
2023-02-11T08:58:48.078Z,4.10
2023-02-11T09:03:55.691Z,4.20
2023-02-11T09:09:05.070Z,4.20
2023-02-11T09:14:20.003Z,4.30
2023-02-11T09:19:28.516Z,4.40
2023-02-11T09:24:35.540Z,4.60
2023-02-11T09:29:42.585Z,4.90
2023-02-11T09:34:49.772Z,5.00
2023-02-11T09:39:56.456Z,5.00
2023-02-11T09:45:05.109Z,4.90
2023-02-11T09:50:31.080Z,4.90
2023-02-11T09:55:42.908Z,4.90
2023-02-11T10:01:11.484Z,4.80
2023-02-11T10:06:43.462Z,4.80
2023-02-11T10:12:15.367Z,4.90
2023-02-11T10:17:45.034Z,5.10
2023-02-11T10:22:59.158Z,5.20
2023-02-11T10:28:18.398Z,5.40
2023-02-11T10:33:45.091Z,5.40
2023-02-11T10:38:51.785Z,5.40
2023-02-11T10:43:58.704Z,5.30
2023-02-11T10:49:06.294Z,5.30
2023-02-11T10:54:20.794Z,5.30
2023-02-11T10:59:38.498Z,5.30
2023-02-11T11:04:46.912Z,5.20
2023-02-11T11:10:06.512Z,5.20
2023-02-11T11:15:32.653Z,5.10
2023-02-11T11:20:39.408Z,5.10
2023-02-11T11:26:12.240Z,5.10
2023-02-11T11:31:25.958Z,5.10
2023-02-11T11:36:38.452Z,5.10
2023-02-11T11:41:54.946Z,5.10
2023-02-11T11:47:24.821Z,5.20
2023-02-11T11:52:57.090Z,5.20
2023-02-11T11:58:04.682Z,5.40
2023-02-11T12:03:49.618Z,5.50
2023-02-11T12:09:33.941Z,5.50
2023-02-11T12:15:03.468Z,5.50
2023-02-11T12:20:20.304Z,5.60
2023-02-11T12:25:56.781Z,5.70
2023-02-11T12:31:16.782Z,5.70
2023-02-11T12:36:40.277Z,5.60
2023-02-11T12:42:21.129Z,5.60
2023-02-11T12:47:57.567Z,5.50
2023-02-11T12:53:24.276Z,5.50
2023-02-11T12:58:44.498Z,5.50
2023-02-11T13:04:00.156Z,5.40
2023-02-11T13:09:16.211Z,5.30
2023-02-11T13:14:41.842Z,5.20
2023-02-11T13:19:55.847Z,5.20
2023-02-11T13:25:18.895Z,5.20
2023-02-11T13:30:37.203Z,5.20
2023-02-11T13:36:04.410Z,5.20
2023-02-11T13:41:34.871Z,5.30
2023-02-11T13:47:01.538Z,5.20
2023-02-11T13:52:27.482Z,5.20
2023-02-11T13:57:38.071Z,5.20
2023-02-11T14:03:02.977Z,5.30
2023-02-11T14:08:32.870Z,5.30
2023-02-11T14:13:53.132Z,5.20
2023-02-11T14:19:02.728Z,5.20
2023-02-11T14:24:18.031Z,5.20
2023-02-11T14:29:57.048Z,5.20
2023-02-11T14:35:30.746Z,5.20
2023-02-11T14:41:06.176Z,5.20
2023-02-11T14:46:16.267Z,5.30
2023-02-11T14:51:36.642Z,5.20
2023-02-11T14:56:44.761Z,5.20
2023-02-11T15:01:55.875Z,5.20
2023-02-11T15:07:08.405Z,5.20
2023-02-11T15:12:27.642Z,5.30
2023-02-11T15:17:35.437Z,5.30
2023-02-11T15:22:41.628Z,5.30
2023-02-11T15:27:55.604Z,5.30
2023-02-11T15:33:06.995Z,5.30
2023-02-11T15:38:15.659Z,5.30
2023-02-11T15:43:23.693Z,5.30
2023-02-11T15:48:56.077Z,5.20
2023-02-11T15:54:06.920Z,5.30
2023-02-11T15:59:26.031Z,5.30
2023-02-11T16:04:33.054Z,5.40
2023-02-11T16:09:41.542Z,5.40
2023-02-11T16:14:48.634Z,5.50
2023-02-11T16:19:56.624Z,5.50
2023-02-11T16:25:04.567Z,5.40
2023-02-11T16:30:27.499Z,5.40
2023-02-11T16:35:35.158Z,5.40
2023-02-11T16:40:44.628Z,5.40
2023-02-11T16:45:53.060Z,5.40
2023-02-11T16:51:01.198Z,5.30
2023-02-11T16:56:08.319Z,5.30
2023-02-11T17:01:15.937Z,5.20
2023-02-11T17:06:22.978Z,5.20
2023-02-11T17:11:29.739Z,5.10
2023-02-11T17:16:36.921Z,5.10
2023-02-11T17:21:46.500Z,5.00
2023-02-11T17:26:53.549Z,5.10
2023-02-11T17:32:01.077Z,5.10
2023-02-11T17:37:11.319Z,5.00
2023-02-11T17:42:22.218Z,5.00
2023-02-11T17:47:29.254Z,5.00
2023-02-11T17:52:36.861Z,4.90
2023-02-11T17:57:44.624Z,4.90
2023-02-11T18:02:52.760Z,4.90
2023-02-11T18:07:59.508Z,4.90
2023-02-11T18:13:06.137Z,5.00
2023-02-11T18:18:13.822Z,5.00
2023-02-11T18:23:21.780Z,5.00
2023-02-11T18:28:30.131Z,5.10
2023-02-11T18:33:38.099Z,5.10
2023-02-11T18:38:46.391Z,5.10
2023-02-11T18:43:53.871Z,5.10
2023-02-11T18:49:00.770Z,5.10
2023-02-11T18:54:08.026Z,5.10
2023-02-11T18:59:14.473Z,5.10
2023-02-11T19:04:23.918Z,5.00
2023-02-11T19:09:32.895Z,4.90
2023-02-11T19:14:41.744Z,4.90
2023-02-11T19:19:48.995Z,4.80
2023-02-11T19:24:56.053Z,4.80
2023-02-11T19:30:03.417Z,4.80
2023-02-11T19:35:11.373Z,4.80
2023-02-11T19:40:18.636Z,4.80
2023-02-11T19:45:28.093Z,4.80
2023-02-11T19:50:35.364Z,4.70
2023-02-11T19:55:42.158Z,4.70
2023-02-11T20:00:51.448Z,4.70
2023-02-11T20:05:59.220Z,4.70
2023-02-11T20:11:15.743Z,4.60
2023-02-11T20:16:40.733Z,4.60
2023-02-11T20:21:36.859Z,4.60
2023-02-11T20:26:46.670Z,4.60
2023-02-11T20:31:54.571Z,4.60
2023-02-11T20:37:03.173Z,4.50
2023-02-11T20:42:15.427Z,4.50
2023-02-11T20:47:22.936Z,4.40
2023-02-11T20:52:30.960Z,4.40
2023-02-11T20:57:40.021Z,4.40
2023-02-11T21:02:46.830Z,4.40
2023-02-11T21:07:55.916Z,4.40
2023-02-11T21:13:03.173Z,4.40
2023-02-11T21:18:10.596Z,4.50
2023-02-11T21:23:17.840Z,4.50
2023-02-11T21:28:28.860Z,4.50
2023-02-11T21:33:36.799Z,4.50
2023-02-11T21:38:45.744Z,4.50
2023-02-11T21:43:54.042Z,4.60
2023-02-11T21:49:02.502Z,4.50
2023-02-11T21:54:09.147Z,4.50
2023-02-11T21:59:16.682Z,4.50
2023-02-11T22:04:26.043Z,4.50
2023-02-11T22:09:35.388Z,4.50
2023-02-11T22:14:42.555Z,4.50
2023-02-11T22:19:49.625Z,4.50
2023-02-11T22:24:55.840Z,4.50
2023-02-11T22:30:02.922Z,4.50
2023-02-11T22:35:10.192Z,4.50
2023-02-11T22:40:17.057Z,4.50
2023-02-11T22:45:24.700Z,4.50
2023-02-11T22:50:32.366Z,4.50
2023-02-11T22:55:41.893Z,4.50
2023-02-11T23:00:48.617Z,4.50
2023-02-11T23:05:56.596Z,4.50
2023-02-11T23:11:10.717Z,4.50
2023-02-11T23:16:24.727Z,4.50
2023-02-11T23:21:35.769Z,4.40
2023-02-11T23:26:44.969Z,4.40
2023-02-11T23:31:52.429Z,4.40
2023-02-11T23:36:59.787Z,4.40
2023-02-11T23:42:07.146Z,4.40
2023-02-11T23:47:14.249Z,4.40
2023-02-11T23:52:22.103Z,4.40
2023-02-11T23:57:29.843Z,4.40
